Mapleton, Maine
Current Conditions -  °F | °C
As of 9:55 AM on Monday 22 Dec 2014 (Local Time) from KPQI Reporting Station
Overcast Overcast  
Wind Chill: 19°   Ceiling: 700
Heat Index: 25°   Visibility: 10mi
Dew Point: 14°   Wind: 5mph
Humidity: 64%   Direction: 150°SSE
Pressure: 30.42"   Gusts: NA
Location:  46.68°N, 68.16°W
Report Text: KPQI 221455Z AUTO 15004KT 10SM BKN007 OVC036 M04/M10 A3042 RMK AO1 52007
Loading
Personal Weather Stations






























Interactive Weather Map New forecast layout! Learn more

10-Day Weather Forecast

Advertisements
Track Severe Weather on mobile